Time;durP1;ratioP1;P1;durP2;ratioP2;P2;SDS_P1;SDS_P2;PMS_P1;PMS_P2;Temp;Humidity;BMP_temperature;BMP_pressure;BME280_temperature;BME280_humidity;BME280_pressure;Samples;Min_cycle;Max_cycle;Signal;HPM_P1;HPM_P2
2021/09/13 00:00:17;;;;;;;17.77;15.95;;;;;;;19.25;72.01;100261.03;4914595;28;101081;-78
2021/09/13 00:02:43;;;;;;;17.48;15.63;;;;;;;19.21;72.19;100260.41;4898931;28;96598;-78
2021/09/13 00:05:09;;;;;;;20.48;18.25;;;;;;;19.16;72.38;100253.72;4914996;28;96687;-78
2021/09/13 00:07:35;;;;;;;19.00;17.25;;;;;;;19.25;72.23;100253.06;4930675;28;101573;-78
2021/09/13 00:10:00;;;;;;;19.42;17.45;;;;;;;19.28;71.85;100263.47;4931378;28;97373;-78
2021/09/13 00:12:26;;;;;;;17.15;15.27;;;;;;;19.20;71.93;100248.09;4886793;28;96586;-78
2021/09/13 00:14:52;;;;;;;25.13;17.88;;;;;;;19.16;72.08;100256.38;4921579;28;96984;-78
2021/09/13 00:17:18;;;;;;;18.55;15.55;;;;;;;19.17;72.15;100258.09;4904305;28;101651;-78
2021/09/13 00:19:44;;;;;;;19.55;16.70;;;;;;;19.20;72.12;100256.06;4920950;28;101165;-78
2021/09/13 00:22:11;;;;;;;22.05;17.50;;;;;;;19.09;72.59;100249.81;4921105;28;96683;-78
2021/09/13 00:24:38;;;;;;;19.58;17.35;;;;;;;19.08;72.61;100250.75;4921022;28;96962;-78
2021/09/13 00:27:05;;;;;;;19.25;16.50;;;;;;;19.13;72.29;100248.63;4936938;28;98579;-78
2021/09/13 00:29:31;;;;;;;19.58;17.38;;;;;;;19.02;72.71;100261.81;4904598;28;97795;-78
2021/09/13 00:31:59;;;;;;;20.00;18.10;;;;;;;19.12;71.98;100261.06;4921037;28;96637;-78
2021/09/13 00:34:28;;;;;;;18.73;16.85;;;;;;;19.03;72.25;100264.38;4921233;28;96908;-77
2021/09/13 00:36:54;;;;;;;18.17;16.27;;;;;;;18.97;72.36;100270.97;4920915;28;101287;-78
2021/09/13 00:39:21;;;;;;;17.00;15.30;;;;;;;19.02;72.23;100264.47;4920346;28;100957;-78
2021/09/13 00:41:47;;;;;;;17.10;15.55;;;;;;;19.05;72.09;100275.75;4936653;28;96589;-77
2021/09/13 00:44:13;;;;;;;18.83;17.02;;;;;;;18.90;72.38;100251.06;4920890;28;97021;-78
2021/09/13 00:46:39;;;;;;;16.95;15.10;;;;;;;19.00;71.97;100265.44;4937001;28;97967;-78
2021/09/13 00:49:05;;;;;;;18.88;16.02;;;;;;;18.89;72.33;100267.16;4920696;28;101001;-78
2021/09/13 00:51:30;;;;;;;17.55;15.82;;;;;;;19.07;71.90;100270.34;4904457;28;96582;-78
2021/09/13 00:53:56;;;;;;;18.88;15.45;;;;;;;19.05;71.33;100259.78;4920978;28;96773;-78
2021/09/13 00:56:22;;;;;;;17.67;16.08;;;;;;;18.99;71.64;100255.78;4904255;28;99794;-78
2021/09/13 00:58:48;;;;;;;17.85;15.95;;;;;;;18.81;72.25;100258.84;4920250;28;98228;-78
2021/09/13 01:01:14;;;;;;;17.85;15.70;;;;;;;18.75;72.60;100253.00;4936717;28;96720;-78
2021/09/13 01:03:39;;;;;;;19.13;15.95;;;;;;;18.69;72.36;100256.03;4920495;28;97120;-78
2021/09/13 01:06:05;;;;;;;17.75;16.05;;;;;;;18.70;72.12;100241.81;4887797;28;99976;-78
2021/09/13 01:08:31;;;;;;;18.35;16.48;;;;;;;18.72;72.21;100255.84;4936310;28;101609;-78
2021/09/13 01:10:57;;;;;;;17.23;15.32;;;;;;;18.63;72.44;100248.50;4904561;28;96662;-78
2021/09/13 01:13:23;;;;;;;19.35;17.35;;;;;;;18.66;72.22;100239.47;4920470;28;96634;-77
2021/09/13 01:15:48;;;;;;;20.67;15.35;;;;;;;18.57;72.61;100240.09;4904189;28;101806;-78
2021/09/13 01:18:14;;;;;;;16.90;15.13;;;;;;;18.55;72.56;100238.38;4904093;28;101615;-78
2021/09/13 01:20:40;;;;;;;20.85;16.13;;;;;;;18.53;72.59;100247.44;4904606;28;96569;-77
2021/09/13 01:23:21;;;;;;;17.63;15.55;;;;;;;18.64;71.95;100247.53;4919384;28;97048;-78
2021/09/13 01:25:47;;;;;;;17.63;15.98;;;;;;;18.63;71.80;100251.16;4916981;28;101649;-77
2021/09/13 01:28:20;;;;;;;17.38;14.52;;;;;;;18.39;72.48;100237.75;4901841;28;101852;-78
2021/09/13 01:30:45;;;;;;;17.45;15.63;;;;;;;18.37;72.41;100234.31;4884784;28;97305;-77
2021/09/13 01:33:13;;;;;;;18.30;15.75;;;;;;;18.43;72.09;100243.69;4901459;28;96878;-78
2021/09/13 01:35:39;;;;;;;19.42;15.30;;;;;;;18.42;72.37;100239.34;4932753;28;101103;-78
2021/09/13 01:38:04;;;;;;;17.13;15.32;;;;;;;18.36;72.26;100229.13;4900784;28;97790;-77
2021/09/13 01:40:31;;;;;;;17.65;15.60;;;;;;;18.32;72.49;100228.47;4901102;28;96769;-77
2021/09/13 01:42:59;;;;;;;17.67;15.65;;;;;;;18.38;72.16;100235.16;4901048;28;96912;-78
2021/09/13 01:45:27;;;;;;;17.13;15.38;;;;;;;18.31;72.56;100240.91;4884762;28;101661;-78
2021/09/13 01:47:53;;;;;;;19.40;16.67;;;;;;;18.28;72.60;100242.94;4900970;28;101323;-78
2021/09/13 01:50:19;;;;;;;18.63;15.63;;;;;;;18.32;72.30;100242.63;4900905;28;96723;-78
2021/09/13 01:52:44;;;;;;;17.08;15.35;;;;;;;18.28;72.33;100242.94;4916711;28;97005;-78
2021/09/13 01:55:10;;;;;;;18.73;16.23;;;;;;;18.23;72.17;100245.88;4916000;28;101235;-78
2021/09/13 01:57:36;;;;;;;18.13;16.23;;;;;;;18.14;72.34;100245.66;4916269;28;101822;-78
2021/09/13 02:00:05;;;;;;;17.50;15.38;;;;;;;18.10;72.62;100245.00;4916722;28;96588;-78
2021/09/13 02:02:39;;;;;;;20.88;16.40;;;;;;;18.07;72.66;100245.22;4928883;28;96650;-78
2021/09/13 02:05:05;;;;;;;17.85;15.35;;;;;;;18.08;72.70;100245.09;4916262;28;100933;-78
2021/09/13 02:07:31;;;;;;;18.40;16.48;;;;;;;17.97;72.45;100226.38;4916193;28;101013;-78
2021/09/13 02:09:57;;;;;;;19.52;15.38;;;;;;;18.06;72.50;100249.69;4916619;28;96583;-78
2021/09/13 02:12:23;;;;;;;22.17;15.60;;;;;;;18.05;72.16;100247.13;4900780;28;96957;-78
2021/09/13 02:14:49;;;;;;;19.50;15.05;;;;;;;18.09;71.97;100254.78;4916129;28;101611;-78
2021/09/13 02:17:17;;;;;;;15.48;13.98;;;;;;;18.06;71.83;100240.84;4916058;28;100866;-78
2021/09/13 02:19:46;;;;;;;15.35;13.85;;;;;;;18.13;71.98;100251.94;4931599;28;96568;-78
2021/09/13 02:22:12;;;;;;;17.45;14.75;;;;;;;17.98;72.55;100248.50;4900430;28;96574;-78
2021/09/13 02:24:39;;;;;;;17.77;15.23;;;;;;;18.13;71.97;100251.94;4900128;28;101675;-78
2021/09/13 02:27:05;;;;;;;19.42;14.80;;;;;;;18.07;72.14;100253.19;4900154;28;101663;-78
2021/09/13 02:29:30;;;;;;;16.90;15.00;;;;;;;18.01;72.09;100250.94;4884296;28;96607;-77
2021/09/13 02:31:56;;;;;;;15.30;13.82;;;;;;;17.96;71.98;100251.22;4916498;28;96920;-78
2021/09/13 02:34:22;;;;;;;15.65;13.98;;;;;;;18.03;71.79;100252.50;4899613;28;100169;-78
2021/09/13 02:36:47;;;;;;;17.48;15.82;;;;;;;18.04;71.91;100259.56;4931476;28;100773;-78
2021/09/13 02:39:14;;;;;;;17.23;15.55;;;;;;;17.85;72.32;100254.56;4900034;28;96559;-78
2021/09/13 02:41:44;;;;;;;15.85;14.45;;;;;;;17.96;72.14;100264.50;4916044;28;96764;-78
2021/09/13 02:44:09;;;;;;;17.13;15.40;;;;;;;17.84;72.37;100265.31;4915270;28;101468;-78
2021/09/13 02:46:35;;;;;;;16.20;14.60;;;;;;;17.74;72.50;100253.53;4932071;28;98394;-78
2021/09/13 02:49:01;;;;;;;16.85;15.15;;;;;;;17.89;72.13;100257.91;4900077;28;96557;-78
2021/09/13 02:51:26;;;;;;;16.92;15.15;;;;;;;17.87;71.85;100258.00;4915843;28;96938;-78
2021/09/13 02:53:52;;;;;;;16.55;14.82;;;;;;;17.80;72.12;100264.66;4915539;28;100827;-78
2021/09/13 02:56:17;;;;;;;16.00;14.57;;;;;;;17.75;72.40;100258.78;4899481;28;101840;-78
2021/09/13 02:58:44;;;;;;;20.92;15.13;;;;;;;17.80;72.47;100263.78;4915353;28;96908;-78
2021/09/13 03:01:10;;;;;;;19.33;13.90;;;;;;;17.73;72.55;100265.13;4932578;28;96901;-78
2021/09/13 03:03:36;;;;;;;16.90;15.27;;;;;;;17.80;72.39;100263.78;4899402;28;101646;-78
2021/09/13 03:06:02;;;;;;;18.13;14.75;;;;;;;17.76;72.37;100272.88;4899460;28;101053;-78
2021/09/13 03:08:27;;;;;;;16.30;14.65;;;;;;;17.79;72.05;100262.94;4883355;28;96632;-78
2021/09/13 03:10:54;;;;;;;19.25;14.75;;;;;;;17.81;71.82;100263.72;4899845;28;96881;-78
2021/09/13 03:13:20;;;;;;;15.52;13.95;;;;;;;17.84;71.85;100262.66;4915597;28;98338;-77
2021/09/13 03:15:45;;;;;;;16.58;14.90;;;;;;;17.75;72.57;100272.03;4899283;28;101155;-78
2021/09/13 03:18:11;;;;;;;17.80;15.15;;;;;;;17.76;72.42;100256.97;4899639;28;96632;-77
2021/09/13 03:20:37;;;;;;;17.00;15.13;;;;;;;17.75;71.95;100266.72;4899367;28;96890;-77
2021/09/13 03:23:04;;;;;;;17.42;15.35;;;;;;;17.78;72.11;100266.56;4915279;28;101637;-77
2021/09/13 03:25:29;;;;;;;18.38;16.35;;;;;;;17.62;72.45;100265.81;4915367;28;101344;-78
2021/09/13 03:27:58;;;;;;;18.08;15.57;;;;;;;17.69;72.36;100272.44;4915769;28;96688;-78
2021/09/13 03:30:27;;;;;;;18.40;15.98;;;;;;;17.58;72.68;100264.31;4931334;28;96912;-78
2021/09/13 03:32:52;;;;;;;18.70;15.73;;;;;;;17.62;72.40;100279.06;4914850;28;97788;-78
2021/09/13 03:35:18;;;;;;;16.27;14.60;;;;;;;17.65;72.75;100276.22;4899076;28;101255;-78
2021/09/13 03:37:44;;;;;;;15.07;13.68;;;;;;;17.64;72.66;100278.03;4899195;28;96700;-78
2021/09/13 03:40:10;;;;;;;15.80;14.20;;;;;;;17.69;72.50;100276.91;4899275;28;96884;-77
2021/09/13 03:42:37;;;;;;;21.50;15.77;;;;;;;17.71;72.48;100280.28;4914840;28;101280;-78
2021/09/13 03:45:04;;;;;;;17.05;14.80;;;;;;;17.71;72.66;100280.28;4914953;28;101761;-77
2021/09/13 03:47:48;;;;;;;16.35;14.68;;;;;;;17.71;72.71;100281.13;4926101;28;96632;-78
2021/09/13 03:50:14;;;;;;;16.40;13.65;;;;;;;17.74;72.53;100285.41;4899647;28;96848;-78
2021/09/13 03:52:40;;;;;;;16.38;14.48;;;;;;;17.72;72.61;100282.00;4914695;28;100889;-78
2021/09/13 03:55:06;;;;;;;15.93;14.30;;;;;;;17.72;72.18;100274.91;4931141;28;97860;-77
2021/09/13 03:57:32;;;;;;;15.95;14.35;;;;;;;17.75;72.42;100281.81;4930772;28;96668;-78
2021/09/13 03:59:58;;;;;;;16.33;14.93;;;;;;;17.71;72.67;100281.13;4898769;28;96935;-78
2021/09/13 04:02:27;;;;;;;15.88;14.38;;;;;;;17.65;72.91;100278.88;4914530;28;101659;-78
2021/09/13 04:04:53;;;;;;;17.40;15.82;;;;;;;17.63;72.95;100284.31;4930705;28;100836;-78
2021/09/13 04:07:24;;;;;;;16.63;14.93;;;;;;;17.73;72.36;100279.25;4883174;28;96569;-78
2021/09/13 04:10:28;;;;;;;15.80;14.00;;;;;;;17.79;72.61;100291.31;4914300;28;96852;-78
2021/09/13 04:13:16;;;;;;;15.35;13.85;;;;;;;17.76;72.56;100281.69;4913565;28;100639;-78
2021/09/13 04:16:02;;;;;;;15.65;14.30;;;;;;;17.81;72.65;100290.25;4894221;28;97446;-78
2021/09/13 04:18:53;;;;;;;15.95;14.40;;;;;;;17.84;72.39;100287.41;4927634;28;96719;-78
2021/09/13 04:21:42;;;;;;;16.73;15.13;;;;;;;17.75;72.83;100276.50;4914488;28;96873;-78
2021/09/13 04:24:32;;;;;;;16.88;15.18;;;;;;;17.72;73.11;100292.63;4926609;28;101248;-78
2021/09/13 04:27:08;;;;;;;20.88;16.02;;;;;;;17.70;73.10;100287.41;4899853;28;101317;-78
2021/09/13 04:30:02;;;;;;;18.08;14.82;;;;;;;17.68;73.10;100286.63;4930853;28;96660;-78
2021/09/13 04:33:03;;;;;;;17.20;14.95;;;;;;;17.77;72.85;100296.69;4903394;28;96919;-77
2021/09/13 04:35:52;;;;;;;19.20;15.85;;;;;;;17.75;72.96;100297.75;4926224;28;99277;-78
2021/09/13 04:38:32;;;;;;;18.15;15.75;;;;;;;17.70;73.24;100289.22;4900046;28;101652;-78
2021/09/13 04:41:18;;;;;;;16.45;14.77;;;;;;;17.82;72.73;100307.03;4901036;28;96694;-78
2021/09/13 04:44:18;;;;;;;23.33;14.70;;;;;;;17.80;72.81;100300.97;4914899;28;96957;-78
2021/09/13 04:47:06;;;;;;;16.15;14.65;;;;;;;17.72;72.81;100295.28;4900137;28;99181;-78
2021/09/13 04:49:48;;;;;;;17.98;16.02;;;;;;;17.76;72.55;100308.25;4900235;28;101777;-78
2021/09/13 04:52:32;;;;;;;16.25;14.63;;;;;;;17.76;72.62;100304.75;4911614;28;96540;-78
2021/09/13 04:54:58;;;;;;;16.67;15.07;;;;;;;17.76;72.67;100302.09;4914252;28;96981;-78
2021/09/13 04:57:23;;;;;;;17.55;15.57;;;;;;;17.80;72.88;100301.84;4881966;28;101846;-78
2021/09/13 04:59:49;;;;;;;21.02;14.68;;;;;;;17.79;72.87;100301.91;4932079;28;101201;-78
2021/09/13 05:02:14;;;;;;;24.63;15.63;;;;;;;17.80;72.87;100307.16;4933435;28;96608;-78
2021/09/13 05:04:41;;;;;;;22.95;17.30;;;;;;;17.89;72.41;100305.69;4917488;28;96941;-77
2021/09/13 05:07:08;;;;;;;18.52;15.77;;;;;;;17.90;72.38;100306.56;4917355;28;101613;-78
2021/09/13 05:09:34;;;;;;;17.77;15.45;;;;;;;17.86;72.51;100298.78;4917231;28;101077;-78
2021/09/13 05:11:59;;;;;;;16.88;15.13;;;;;;;17.89;72.30;100311.00;4917262;28;96500;-77
2021/09/13 05:14:25;;;;;;;17.65;14.35;;;;;;;17.98;72.57;100320.19;4901629;28;96881;-78
2021/09/13 05:16:51;;;;;;;16.45;14.77;;;;;;;18.12;71.70;100312.16;4916553;28;101172;-78
2021/09/13 05:19:18;;;;;;;16.40;14.70;;;;;;;18.25;71.25;100313.06;4901088;28;101047;-78
2021/09/13 05:21:44;;;;;;;16.80;15.10;;;;;;;18.49;70.80;100309.72;4900849;28;96669;-78
2021/09/13 05:24:14;;;;;;;15.80;14.18;;;;;;;18.64;70.23;100302.50;4917156;28;97025;-77
2021/09/13 05:26:41;;;;;;;16.55;14.52;;;;;;;18.77;70.33;100324.69;4916800;28;100875;-78
2021/09/13 05:29:07;;;;;;;16.40;14.90;;;;;;;18.84;70.46;100319.81;4916781;28;101140;-78
2021/09/13 05:31:33;;;;;;;24.15;14.93;;;;;;;18.91;70.30;100318.44;4900926;28;96655;-78
2021/09/13 05:33:58;;;;;;;16.42;14.63;;;;;;;19.06;69.95;100321.84;4917441;28;96928;-78
2021/09/13 05:36:25;;;;;;;16.58;14.80;;;;;;;19.17;69.28;100306.84;4916780;28;100942;-78
2021/09/13 05:38:52;;;;;;;16.77;15.15;;;;;;;19.33;69.03;100308.41;4885117;28;101709;-78
2021/09/13 05:41:46;;;;;;;17.40;15.57;;;;;;;19.17;69.97;100322.81;4912619;28;96797;-78
2021/09/13 05:44:13;;;;;;;19.10;15.52;;;;;;;19.07;70.07;100332.38;4916776;28;96918;-78
2021/09/13 05:46:39;;;;;;;17.23;15.50;;;;;;;19.00;70.39;100329.28;4900579;28;100978;-77
2021/09/13 05:49:10;;;;;;;18.33;16.23;;;;;;;18.96;70.58;100332.25;4900525;28;100998;-78
2021/09/13 05:51:42;;;;;;;17.50;15.80;;;;;;;18.91;70.57;100334.41;4901258;28;96693;-78
2021/09/13 05:54:09;;;;;;;18.60;16.55;;;;;;;18.96;70.58;100341.06;4932950;28;96753;-77
2021/09/13 05:56:37;;;;;;;17.77;16.17;;;;;;;18.98;70.61;100341.84;4900296;28;101901;-78
2021/09/13 05:59:03;;;;;;;19.30;17.42;;;;;;;18.97;70.49;100340.13;4884502;28;100216;-78
2021/09/13 06:01:29;;;;;;;17.38;15.77;;;;;;;18.96;70.58;100335.75;4932696;28;96608;-78
2021/09/13 06:03:54;;;;;;;19.63;16.95;;;;;;;18.87;70.95;100339.03;4916627;28;96870;-78
2021/09/13 06:06:20;;;;;;;17.60;15.98;;;;;;;18.88;70.84;100346.09;4915790;28;101582;-78
2021/09/13 06:08:45;;;;;;;18.58;16.63;;;;;;;18.85;71.36;100337.44;4916086;28;101555;-78
2021/09/13 06:11:11;;;;;;;18.40;16.60;;;;;;;18.87;71.48;100339.03;4916224;28;96650;-78
2021/09/13 06:13:42;;;;;;;20.90;17.17;;;;;;;18.73;72.06;100342.66;4916197;28;96771;-78
2021/09/13 06:16:08;;;;;;;17.85;16.23;;;;;;;18.64;72.23;100339.72;4899959;28;101099;-78
2021/09/13 06:18:37;;;;;;;17.85;15.98;;;;;;;18.78;71.78;100340.53;4915391;28;101428;-78
2021/09/13 06:21:04;;;;;;;17.90;15.85;;;;;;;18.75;71.91;100346.06;4932205;28;96679;-79
2021/09/13 06:23:29;;;;;;;17.17;15.57;;;;;;;18.70;72.24;100336.66;4900431;28;96886;-77
2021/09/13 06:25:58;;;;;;;18.10;16.38;;;;;;;18.70;72.48;100334.00;4915806;28;99812;-78
2021/09/13 06:28:24;;;;;;;17.63;15.80;;;;;;;18.75;72.19;100338.06;4899877;28;101034;-78
2021/09/13 06:30:51;;;;;;;19.08;17.13;;;;;;;18.83;72.22;100344.69;4915606;28;96676;-77
2021/09/13 06:33:17;;;;;;;16.95;15.38;;;;;;;18.77;72.38;100338.00;4915995;28;96633;-78
2021/09/13 06:35:43;;;;;;;17.30;15.65;;;;;;;18.77;72.39;100345.97;4916102;28;98048;-78
2021/09/13 06:38:14;;;;;;;18.67;16.80;;;;;;;18.60;73.22;100349.72;4931148;28;101851;-78
2021/09/13 06:40:40;;;;;;;17.23;15.60;;;;;;;18.59;73.25;100360.44;4899690;28;96575;-77
2021/09/13 06:43:06;;;;;;;17.10;15.23;;;;;;;18.55;73.50;100352.69;4915832;28;96913;-77
2021/09/13 06:45:42;;;;;;;17.80;16.30;;;;;;;18.48;73.69;100358.53;4931132;28;101475;-78
2021/09/13 06:48:10;;;;;;;19.13;17.27;;;;;;;18.51;73.71;100353.00;4916155;28;101026;-78
2021/09/13 06:50:37;;;;;;;17.48;15.73;;;;;;;18.52;74.08;100352.03;4932174;28;96720;-78
2021/09/13 06:53:03;;;;;;;17.08;15.45;;;;;;;18.61;73.57;100361.19;4931996;28;97038;-78
2021/09/13 06:55:29;;;;;;;17.08;15.48;;;;;;;18.63;73.37;100360.16;4914800;28;101538;-77
2021/09/13 06:57:55;;;;;;;16.83;15.20;;;;;;;18.73;72.95;100350.66;4931023;28;97452;-78
2021/09/13 07:00:22;;;;;;;16.90;15.30;;;;;;;18.86;72.81;100358.63;4931882;28;96779;-78
2021/09/13 07:02:48;;;;;;;17.08;15.57;;;;;;;18.87;73.02;100360.31;4931544;28;96864;-78
2021/09/13 07:05:14;;;;;;;18.73;16.83;;;;;;;18.91;73.13;100359.19;4931590;28;98290;-78
2021/09/13 07:07:40;;;;;;;18.15;16.50;;;;;;;19.14;72.52;100365.59;4931533;28;97370;-78
2021/09/13 07:10:08;;;;;;;16.60;15.20;;;;;;;19.35;71.55;100357.91;4916980;28;96562;-78
2021/09/13 07:12:35;;;;;;;15.82;14.43;;;;;;;19.67;70.69;100366.31;4899726;28;96845;-77
2021/09/13 07:15:04;;;;;;;15.73;14.32;;;;;;;20.10;69.31;100370.34;4899148;28;101633;-78
2021/09/13 07:17:30;;;;;;;16.27;14.68;;;;;;;20.50;68.09;100368.25;4915424;28;97381;-78
2021/09/13 07:19:58;;;;;;;16.65;15.15;;;;;;;21.04;66.64;100364.22;4931128;28;96731;-78
2021/09/13 07:22:23;;;;;;;16.65;15.25;;;;;;;21.57;65.80;100374.38;4914976;28;96802;-78
2021/09/13 07:24:49;;;;;;;17.27;15.55;;;;;;;22.66;62.41;100371.75;4898690;28;100824;-78
2021/09/13 07:27:14;;;;;;;17.83;16.27;;;;;;;24.98;56.63;100368.16;4915114;28;97327;-78
2021/09/13 07:29:40;;;;;;;16.38;14.80;;;;;;;28.46;48.70;100364.53;4898923;28;96606;-78
2021/09/13 07:32:06;;;;;;;15.30;13.65;;;;;;;29.85;45.89;100363.50;4931646;28;97013;-79
2021/09/13 07:34:33;;;;;;;14.30;13.00;;;;;;;30.65;44.20;100374.00;4898664;28;101841;-79
2021/09/13 07:36:59;;;;;;;18.50;13.93;;;;;;;31.56;42.23;100375.72;4899149;28;101195;-79
2021/09/13 07:39:27;;;;;;;15.35;14.13;;;;;;;32.04;40.98;100366.31;4914938;28;96603;-79
2021/09/13 07:41:52;;;;;;;14.10;13.00;;;;;;;33.03;40.04;100367.31;4931400;28;96787;-79
2021/09/13 07:44:18;;;;;;;14.05;12.68;;;;;;;34.00;38.12;100366.38;4898221;28;101210;-79
2021/09/13 07:46:43;;;;;;;11.77;10.77;;;;;;;34.70;37.28;100360.72;4916217;28;97382;-79
2021/09/13 07:49:09;;;;;;;13.25;12.15;;;;;;;34.79;36.93;100358.63;4899740;28;96635;-80
2021/09/13 07:51:35;;;;;;;10.93;10.02;;;;;;;33.41;38.82;100363.38;4931387;28;96818;-79
2021/09/13 07:54:01;;;;;;;12.45;11.23;;;;;;;35.28;36.70;100362.78;4914570;28;101114;-80
2021/09/13 07:56:27;;;;;;;10.73;9.65;;;;;;;33.46;38.55;100366.34;4899016;28;97970;-80
2021/09/13 07:58:52;;;;;;;11.65;10.80;;;;;;;31.52;41.78;100358.13;4930855;28;96865;-80
2021/09/13 08:01:18;;;;;;;10.07;9.30;;;;;;;35.37;35.88;100351.47;4899273;28;96863;-80
2021/09/13 08:03:43;;;;;;;12.18;11.18;;;;;;;36.91;32.98;100352.28;4916073;28;97423;-79
2021/09/13 08:06:09;;;;;;;12.68;11.35;;;;;;;37.55;32.43;100352.94;4930771;28;97967;-80
2021/09/13 08:08:35;;;;;;;10.68;9.85;;;;;;;37.63;32.20;100351.81;4930603;28;96626;-80
2021/09/13 08:11:01;;;;;;;11.50;10.40;;;;;;;38.15;31.04;100354.09;4899021;28;96921;-80
2021/09/13 08:13:28;;;;;;;12.65;11.65;;;;;;;38.04;30.85;100358.47;4914816;28;98011;-77
2021/09/13 08:15:54;;;;;;;11.10;10.13;;;;;;;38.68;30.99;100356.03;4898590;28;101416;-77
2021/09/13 08:18:20;;;;;;;14.73;9.07;;;;;;;39.42;29.33;100358.34;4930762;28;96595;-77
2021/09/13 08:20:46;;;;;;;11.10;10.20;;;;;;;39.49;29.32;100359.88;4914711;28;96915;-77
2021/09/13 08:23:12;;;;;;;10.85;10.05;;;;;;;39.77;28.81;100361.06;4913831;28;101222;-78
2021/09/13 08:25:40;;;;;;;9.57;8.90;;;;;;;40.77;28.04;100353.28;4914470;28;97985;-77
2021/09/13 08:28:22;;;;;;;10.80;9.77;;;;;;;41.03;27.44;100357.25;4914740;28;96757;-78
2021/09/13 08:30:49;;;;;;;11.75;9.55;;;;;;;38.88;30.12;100356.56;4913524;28;97268;-78
2021/09/13 08:33:14;;;;;;;10.40;9.60;;;;;;;36.55;33.04;100361.22;4930847;28;97623;-78
2021/09/13 08:35:40;;;;;;;9.48;8.73;;;;;;;36.77;32.51;100358.97;4917485;28;97450;-77
2021/09/13 08:38:05;;;;;;;9.40;8.70;;;;;;;35.11;35.29;100355.06;4885575;28;96771;-77
2021/09/13 08:40:31;;;;;;;10.00;9.10;;;;;;;33.11;38.37;100358.19;4901353;28;97084;-74
2021/09/13 08:42:58;;;;;;;9.52;8.73;;;;;;;31.69;40.48;100364.19;4901513;28;98010;-77
2021/09/13 08:45:31;;;;;;;9.90;9.18;;;;;;;33.93;37.57;100364.72;4885364;28;101652;-77
2021/09/13 08:50:36;;;;;;;11.75;10.68;;;;;;;30.60;42.33;100369.16;4934291;28;96640;-76
2021/09/13 08:53:02;;;;;;;9.13;8.38;;;;;;;30.21;43.75;100367.38;4932120;28;101117;-79
2021/09/13 08:55:28;;;;;;;8.02;7.40;;;;;;;31.13;41.67;100372.75;4917469;28;97354;-79
2021/09/13 08:57:54;;;;;;;9.80;9.00;;;;;;;34.43;36.19;100374.28;4884555;28;96685;-79
2021/09/13 09:00:20;;;;;;;11.40;10.32;;;;;;;35.62;34.47;100363.59;4933956;28;96679;-79
2021/09/13 09:02:46;;;;;;;10.88;9.98;;;;;;;36.25;33.28;100364.56;4917135;28;101472;-79
2021/09/13 09:05:12;;;;;;;10.57;9.35;;;;;;;36.87;32.47;100370.22;4901459;28;98402;-79
2021/09/13 09:07:50;;;;;;;11.85;9.57;;;;;;;37.46;31.86;100372.59;4885508;28;96545;-77
2021/09/13 09:10:22;;;;;;;11.75;9.20;;;;;;;38.17;30.51;100368.41;4917547;28;96937;-77
2021/09/13 09:13:07;;;;;;;13.55;9.18;;;;;;;38.43;29.34;100373.53;4932523;28;101085;-77
2021/09/13 09:15:33;;;;;;;8.75;8.05;;;;;;;37.30;30.84;100365.84;4901564;28;100211;-77
2021/09/13 09:18:00;;;;;;;9.15;8.32;;;;;;;34.11;35.46;100370.44;4917733;28;96574;-77
2021/09/13 09:20:26;;;;;;;8.63;7.88;;;;;;;33.81;36.36;100369.91;4933658;28;97012;-77
2021/09/13 09:23:03;;;;;;;8.10;7.38;;;;;;;36.19;32.19;100372.81;4933039;28;97929;-77
2021/09/13 09:25:35;;;;;;;7.10;6.60;;;;;;;37.19;30.80;100367.44;4933061;28;97497;-77
2021/09/13 09:28:05;;;;;;;8.63;7.20;;;;;;;37.86;30.34;100361.22;4917421;28;96667;-77
2021/09/13 09:30:41;;;;;;;7.72;7.03;;;;;;;35.69;32.41;100378.84;4900543;28;96939;-78
2021/09/13 09:33:15;;;;;;;7.60;7.00;;;;;;;33.33;35.67;100377.97;4932833;28;101471;-77
2021/09/13 09:35:47;;;;;;;9.32;7.95;;;;;;;35.70;32.38;100380.56;4916309;28;101661;-79
2021/09/13 09:38:34;;;;;;;8.20;7.40;;;;;;;36.56;30.87;100362.88;4900519;28;96642;-78
2021/09/13 09:41:01;;;;;;;8.18;7.35;;;;;;;37.21;29.60;100370.78;4933477;28;96703;-77
2021/09/13 09:43:29;;;;;;;8.23;7.53;;;;;;;36.77;30.51;100374.50;4932379;28;101669;-77
2021/09/13 09:45:55;;;;;;;8.67;7.87;;;;;;;36.45;30.87;100371.78;4931682;28;98322;-77
2021/09/13 09:48:28;;;;;;;8.95;8.05;;;;;;;36.46;30.93;100368.00;4900095;28;96846;-77
2021/09/13 09:50:53;;;;;;;11.88;8.98;;;;;;;36.95;30.86;100369.09;4917125;28;96577;-78
2021/09/13 09:53:20;;;;;;;15.75;10.00;;;;;;;36.45;30.89;100358.97;4916490;28;97981;-77
2021/09/13 09:55:53;;;;;;;13.63;9.65;;;;;;;35.59;31.52;100362.13;4916217;28;96646;-77
2021/09/13 09:58:19;;;;;;;9.98;7.97;;;;;;;36.13;30.95;100354.53;4931239;28;96857;-77
2021/09/13 10:00:47;;;;;;;10.45;7.90;;;;;;;35.90;31.35;100355.91;4932781;28;96756;-77
2021/09/13 10:03:29;;;;;;;8.60;7.70;;;;;;;35.69;31.29;100351.56;4915902;28;101189;-77
2021/09/13 10:05:54;;;;;;;8.45;7.72;;;;;;;33.76;33.96;100350.59;4932344;28;101084;-77
2021/09/13 10:08:22;;;;;;;8.85;8.10;;;;;;;34.77;32.02;100353.41;4932713;28;96597;-77
2021/09/13 10:10:48;;;;;;;7.22;6.60;;;;;;;34.46;32.08;100360.25;4916166;28;96944;-77
2021/09/13 10:13:13;;;;;;;7.20;6.50;;;;;;;33.98;33.13;100354.88;4915198;28;97626;-77
2021/09/13 10:15:40;;;;;;;8.52;7.78;;;;;;;34.56;32.46;100357.16;4917270;28;98411;-77
2021/09/13 10:18:05;;;;;;;8.95;8.02;;;;;;;33.03;34.49;100361.88;4916291;28;96605;-77
2021/09/13 10:20:31;;;;;;;7.93;7.20;;;;;;;31.92;36.83;100352.41;4900526;28;97072;-77
2021/09/13 10:22:57;;;;;;;8.07;7.35;;;;;;;30.91;38.19;100357.38;4932131;28;101086;-77
2021/09/13 10:25:29;;;;;;;8.50;7.03;;;;;;;30.35;39.10;100354.94;4932091;28;101013;-77
2021/09/13 10:28:03;;;;;;;8.38;6.85;;;;;;;31.39;38.24;100362.50;4884165;28;96670;-77
2021/09/13 10:30:28;;;;;;;9.95;6.95;;;;;;;31.58;37.55;100351.09;4916294;28;96825;-77
2021/09/13 10:33:10;;;;;;;6.22;5.63;;;;;;;30.54;38.53;100350.88;4899315;28;99142;-79
2021/09/13 10:35:57;;;;;;;12.32;7.43;;;;;;;30.90;38.39;100347.56;4916042;28;97444;-79
2021/09/13 10:38:45;;;;;;;10.45;7.20;;;;;;;30.15;38.67;100354.53;4915133;28;96649;-79
2021/09/13 10:41:49;;;;;;;10.07;6.60;;;;;;;30.02;39.47;100348.88;4899576;28;96881;-79
2021/09/13 10:44:28;;;;;;;6.93;6.32;;;;;;;30.59;38.46;100343.06;4913048;28;101495;-79
2021/09/13 10:47:04;;;;;;;6.63;6.05;;;;;;;30.30;38.54;100351.06;4931738;28;97622;-79
2021/09/13 10:49:31;;;;;;;6.65;6.00;;;;;;;29.92;39.48;100359.88;4931811;28;96660;-79
2021/09/13 10:52:32;;;;;;;6.15;5.65;;;;;;;29.51;39.58;100357.34;4883592;28;97023;-79
2021/09/13 10:55:11;;;;;;;6.68;6.05;;;;;;;28.68;41.45;100357.59;4931564;28;98644;-80
2021/09/13 10:58:00;;;;;;;8.33;6.03;;;;;;;28.64;42.18;100362.50;4915601;28;97787;-79
2021/09/13 11:00:40;;;;;;;7.78;6.97;;;;;;;28.32;42.46;100366.00;4861772;28;96679;-79
2021/09/13 11:06:13;;;;;;;8.05;7.18;;;;;;;27.58;44.59;100366.72;4879412;28;98476;-90
2021/09/13 11:08:55;;;;;;;9.70;6.88;;;;;;;27.43;44.76;100374.56;4894343;28;100325;-90
2021/09/13 11:11:35;;;;;;;6.57;5.97;;;;;;;27.50;44.67;100373.78;4878650;28;96616;-91
2021/09/13 11:14:16;;;;;;;7.22;6.38;;;;;;;27.28;45.35;100374.31;4862959;28;96933;-90
2021/09/13 11:17:02;;;;;;;10.15;6.88;;;;;;;27.15;45.52;100372.06;4878077;28;100625;-90
2021/09/13 11:19:28;;;;;;;7.50;5.75;;;;;;;27.46;45.25;100368.84;4877892;28;101575;-90
2021/09/13 11:21:56;;;;;;;8.88;6.70;;;;;;;27.42;44.76;100370.19;4862483;28;96702;-88
2021/09/13 11:24:23;;;;;;;7.55;6.60;;;;;;;27.45;44.71;100362.63;4862409;28;96968;-88